sensor_id;sensor_type;location;lat;lon;timestamp;temperature;humidity
46181;DHT22;58963;50.438;30.594;2022-08-03T00:00:06;18.80;99.90
46181;DHT22;58963;50.438;30.594;2022-08-03T00:05:26;18.80;99.90
46181;DHT22;58963;50.438;30.594;2022-08-03T00:10:45;18.80;99.90
46181;DHT22;58963;50.438;30.594;2022-08-03T00:16:05;18.90;99.90
46181;DHT22;58963;50.438;30.594;2022-08-03T00:21:24;18.80;99.90
46181;DHT22;58963;50.438;30.594;2022-08-03T00:26:43;18.80;99.90
46181;DHT22;58963;50.438;30.594;2022-08-03T00:32:03;18.80;99.90
46181;DHT22;58963;50.438;30.594;2022-08-03T00:37:23;18.80;99.90
46181;DHT22;58963;50.438;30.594;2022-08-03T00:43:00;18.70;99.90
46181;DHT22;58963;50.438;30.594;2022-08-03T00:48:20;18.80;99.90
46181;DHT22;58963;50.438;30.594;2022-08-03T00:53:39;18.80;99.90
46181;DHT22;58963;50.438;30.594;2022-08-03T00:58:59;18.80;99.90
46181;DHT22;58963;50.438;30.594;2022-08-03T01:04:18;18.80;99.90
46181;DHT22;58963;50.438;30.594;2022-08-03T01:09:50;18.80;99.90
46181;DHT22;58963;50.438;30.594;2022-08-03T01:20:45;18.90;99.90
46181;DHT22;58963;50.438;30.594;2022-08-03T01:32:10;18.90;99.90
46181;DHT22;58963;50.438;30.594;2022-08-03T01:37:57;19.20;99.90
46181;DHT22;58963;50.438;30.594;2022-08-03T01:43:20;19.10;99.90
46181;DHT22;58963;50.438;30.594;2022-08-03T01:48:42;19.10;99.90
46181;DHT22;58963;50.438;30.594;2022-08-03T01:54:03;19.00;99.90
46181;DHT22;58963;50.438;30.594;2022-08-03T01:59:24;19.10;99.90
46181;DHT22;58963;50.438;30.594;2022-08-03T02:04:46;19.20;99.90
46181;DHT22;58963;50.438;30.594;2022-08-03T02:10:06;19.10;99.90
46181;DHT22;58963;50.438;30.594;2022-08-03T02:15:27;19.10;99.90
46181;DHT22;58963;50.438;30.594;2022-08-03T02:20:49;18.90;99.90
46181;DHT22;58963;50.438;30.594;2022-08-03T02:26:14;18.90;99.90
46181;DHT22;58963;50.438;30.594;2022-08-03T02:31:36;18.80;99.90
46181;DHT22;58963;50.438;30.594;2022-08-03T02:36:57;18.80;99.90
46181;DHT22;58963;50.438;30.594;2022-08-03T02:42:22;18.70;99.90
46181;DHT22;58963;50.438;30.594;2022-08-03T02:47:43;18.80;99.90
46181;DHT22;58963;50.438;30.594;2022-08-03T02:53:04;18.70;99.90
46181;DHT22;58963;50.438;30.594;2022-08-03T02:58:24;18.70;99.90
46181;DHT22;58963;50.438;30.594;2022-08-03T03:03:45;18.80;99.90
46181;DHT22;58963;50.438;30.594;2022-08-03T03:09:06;18.80;99.90
46181;DHT22;58963;50.438;30.594;2022-08-03T03:14:27;18.70;99.90
46181;DHT22;58963;50.438;30.594;2022-08-03T03:19:48;18.80;99.90
46181;DHT22;58963;50.438;30.594;2022-08-03T03:25:08;18.90;99.90
46181;DHT22;58963;50.438;30.594;2022-08-03T03:30:28;18.90;99.90
46181;DHT22;58963;50.438;30.594;2022-08-03T03:35:48;18.90;99.90
46181;DHT22;58963;50.438;30.594;2022-08-03T03:41:08;18.90;99.90
46181;DHT22;58963;50.438;30.594;2022-08-03T03:46:28;18.90;99.90
46181;DHT22;58963;50.438;30.594;2022-08-03T03:51:48;19.00;99.90
46181;DHT22;58963;50.438;30.594;2022-08-03T03:57:10;19.00;99.90
46181;DHT22;58963;50.438;30.594;2022-08-03T04:02:30;19.00;99.90
46181;DHT22;58963;50.438;30.594;2022-08-03T04:08:02;19.00;99.90
46181;DHT22;58963;50.438;30.594;2022-08-03T04:13:50;19.10;99.90
46181;DHT22;58963;50.438;30.594;2022-08-03T04:19:17;19.10;99.90
46181;DHT22;58963;50.438;30.594;2022-08-03T04:24:42;19.10;99.90
46181;DHT22;58963;50.438;30.594;2022-08-03T04:30:06;19.20;99.90
46181;DHT22;58963;50.438;30.594;2022-08-03T04:35:30;19.30;99.90
46181;DHT22;58963;50.438;30.594;2022-08-03T04:40:51;19.40;99.90
46181;DHT22;58963;50.438;30.594;2022-08-03T04:46:12;19.50;99.90
46181;DHT22;58963;50.438;30.594;2022-08-03T04:51:33;19.70;99.90
46181;DHT22;58963;50.438;30.594;2022-08-03T04:56:56;19.70;99.90
46181;DHT22;58963;50.438;30.594;2022-08-03T05:02:15;20.00;99.90
46181;DHT22;58963;50.438;30.594;2022-08-03T05:07:34;20.20;99.90
46181;DHT22;58963;50.438;30.594;2022-08-03T05:12:53;20.20;99.90
46181;DHT22;58963;50.438;30.594;2022-08-03T05:18:12;20.30;99.90
46181;DHT22;58963;50.438;30.594;2022-08-03T05:23:31;20.80;99.90
46181;DHT22;58963;50.438;30.594;2022-08-03T05:28:51;21.00;99.90
46181;DHT22;58963;50.438;30.594;2022-08-03T05:34:11;21.10;99.90
46181;DHT22;58963;50.438;30.594;2022-08-03T05:39:30;21.00;99.90
46181;DHT22;58963;50.438;30.594;2022-08-03T05:44:50;21.10;99.90
46181;DHT22;58963;50.438;30.594;2022-08-03T05:50:12;21.30;99.90
46181;DHT22;58963;50.438;30.594;2022-08-03T05:55:32;21.30;99.90
46181;DHT22;58963;50.438;30.594;2022-08-03T06:00:51;22.00;99.90
46181;DHT22;58963;50.438;30.594;2022-08-03T06:06:10;21.70;99.90
46181;DHT22;58963;50.438;30.594;2022-08-03T06:11:30;21.50;99.90
46181;DHT22;58963;50.438;30.594;2022-08-03T06:16:49;22.80;99.90
46181;DHT22;58963;50.438;30.594;2022-08-03T06:22:08;25.00;99.90
46181;DHT22;58963;50.438;30.594;2022-08-03T06:27:27;26.70;99.90
46181;DHT22;58963;50.438;30.594;2022-08-03T06:32:47;27.80;99.90
46181;DHT22;58963;50.438;30.594;2022-08-03T06:38:06;28.90;95.30
46181;DHT22;58963;50.438;30.594;2022-08-03T06:43:26;30.00;89.90
46181;DHT22;58963;50.438;30.594;2022-08-03T06:48:45;31.00;83.10
46181;DHT22;58963;50.438;30.594;2022-08-03T06:54:08;30.70;81.30
46181;DHT22;58963;50.438;30.594;2022-08-03T06:59:27;30.70;80.50
46181;DHT22;58963;50.438;30.594;2022-08-03T07:04:48;31.80;76.80
46181;DHT22;58963;50.438;30.594;2022-08-03T07:10:08;32.40;75.30
46181;DHT22;58963;50.438;30.594;2022-08-03T07:15:28;31.20;73.80
46181;DHT22;58963;50.438;30.594;2022-08-03T07:20:47;29.30;85.50
46181;DHT22;58963;50.438;30.594;2022-08-03T07:26:07;28.80;91.10
46181;DHT22;58963;50.438;30.594;2022-08-03T07:31:26;29.90;88.80
46181;DHT22;58963;50.438;30.594;2022-08-03T07:36:45;31.50;80.40
46181;DHT22;58963;50.438;30.594;2022-08-03T07:42:04;31.40;75.80
46181;DHT22;58963;50.438;30.594;2022-08-03T07:47:29;31.50;76.00
46181;DHT22;58963;50.438;30.594;2022-08-03T07:52:49;32.90;71.80
46181;DHT22;58963;50.438;30.594;2022-08-03T07:58:19;31.50;75.60
46181;DHT22;58963;50.438;30.594;2022-08-03T08:03:40;32.30;72.50
46181;DHT22;58963;50.438;30.594;2022-08-03T08:09:00;32.80;69.80
46181;DHT22;58963;50.438;30.594;2022-08-03T08:14:20;32.40;69.80
46181;DHT22;58963;50.438;30.594;2022-08-03T08:19:43;32.40;70.70
46181;DHT22;58963;50.438;30.594;2022-08-03T08:25:04;32.10;71.80
46181;DHT22;58963;50.438;30.594;2022-08-03T08:30:23;32.00;73.20
46181;DHT22;58963;50.438;30.594;2022-08-03T08:35:42;32.40;68.70
46181;DHT22;58963;50.438;30.594;2022-08-03T08:41:02;32.70;68.80
46181;DHT22;58963;50.438;30.594;2022-08-03T08:46:21;31.20;74.40
46181;DHT22;58963;50.438;30.594;2022-08-03T08:51:42;29.50;83.60
46181;DHT22;58963;50.438;30.594;2022-08-03T08:57:03;28.90;88.80
46181;DHT22;58963;50.438;30.594;2022-08-03T09:02:23;29.30;89.60
46181;DHT22;58963;50.438;30.594;2022-08-03T09:07:44;28.80;90.20
46181;DHT22;58963;50.438;30.594;2022-08-03T09:13:03;29.60;91.30
46181;DHT22;58963;50.438;30.594;2022-08-03T09:18:28;30.90;83.90
46181;DHT22;58963;50.438;30.594;2022-08-03T09:23:54;30.80;81.90
46181;DHT22;58963;50.438;30.594;2022-08-03T09:29:14;29.40;86.80
46181;DHT22;58963;50.438;30.594;2022-08-03T09:34:38;29.30;91.00
46181;DHT22;58963;50.438;30.594;2022-08-03T09:39:57;30.20;89.30
46181;DHT22;58963;50.438;30.594;2022-08-03T09:45:26;31.40;85.10
46181;DHT22;58963;50.438;30.594;2022-08-03T09:50:54;31.00;85.80
46181;DHT22;58963;50.438;30.594;2022-08-03T09:56:13;29.80;88.70
46181;DHT22;58963;50.438;30.594;2022-08-03T10:01:34;28.10;94.20
46181;DHT22;58963;50.438;30.594;2022-08-03T10:07:02;28.20;97.20
46181;DHT22;58963;50.438;30.594;2022-08-03T10:12:23;28.70;99.10
46181;DHT22;58963;50.438;30.594;2022-08-03T10:17:43;29.10;99.20
46181;DHT22;58963;50.438;30.594;2022-08-03T10:23:02;29.70;97.30
46181;DHT22;58963;50.438;30.594;2022-08-03T10:28:23;30.00;96.80
46181;DHT22;58963;50.438;30.594;2022-08-03T10:33:45;29.50;94.20
46181;DHT22;58963;50.438;30.594;2022-08-03T10:39:05;30.30;93.10
46181;DHT22;58963;50.438;30.594;2022-08-03T10:44:27;31.30;89.10
46181;DHT22;58963;50.438;30.594;2022-08-03T10:49:49;32.00;87.60
46181;DHT22;58963;50.438;30.594;2022-08-03T11:01:11;31.30;84.90
46181;DHT22;58963;50.438;30.594;2022-08-03T11:06:31;29.50;91.50
46181;DHT22;58963;50.438;30.594;2022-08-03T11:11:50;28.00;98.10
46181;DHT22;58963;50.438;30.594;2022-08-03T11:17:10;27.80;99.90
46181;DHT22;58963;50.438;30.594;2022-08-03T11:22:47;29.60;99.90
46181;DHT22;58963;50.438;30.594;2022-08-03T11:28:26;30.10;96.10
46181;DHT22;58963;50.438;30.594;2022-08-03T11:34:08;29.80;94.70
46181;DHT22;58963;50.438;30.594;2022-08-03T11:39:42;29.50;98.20
46181;DHT22;58963;50.438;30.594;2022-08-03T11:45:06;29.30;94.20
46181;DHT22;58963;50.438;30.594;2022-08-03T11:50:26;29.90;97.30
46181;DHT22;58963;50.438;30.594;2022-08-03T11:55:58;30.10;90.40
46181;DHT22;58963;50.438;30.594;2022-08-03T12:01:18;30.30;92.40
46181;DHT22;58963;50.438;30.594;2022-08-03T12:06:38;30.40;94.50
46181;DHT22;58963;50.438;30.594;2022-08-03T12:12:15;29.60;95.50
46181;DHT22;58963;50.438;30.594;2022-08-03T12:17:39;28.90;97.50
46181;DHT22;58963;50.438;30.594;2022-08-03T12:23:05;28.50;96.70
46181;DHT22;58963;50.438;30.594;2022-08-03T12:28:24;27.90;99.90
46181;DHT22;58963;50.438;30.594;2022-08-03T12:33:58;27.20;99.90
46181;DHT22;58963;50.438;30.594;2022-08-03T12:39:22;26.10;99.90
46181;DHT22;58963;50.438;30.594;2022-08-03T12:44:42;25.40;99.90
46181;DHT22;58963;50.438;30.594;2022-08-03T12:50:01;25.60;99.90
46181;DHT22;58963;50.438;30.594;2022-08-03T12:55:21;26.30;99.90
46181;DHT22;58963;50.438;30.594;2022-08-03T13:00:54;27.70;99.90
46181;DHT22;58963;50.438;30.594;2022-08-03T13:06:15;28.50;99.90
46181;DHT22;58963;50.438;30.594;2022-08-03T13:11:36;28.40;99.90
46181;DHT22;58963;50.438;30.594;2022-08-03T13:16:55;27.20;99.90
46181;DHT22;58963;50.438;30.594;2022-08-03T13:27:33;26.10;99.90
46181;DHT22;58963;50.438;30.594;2022-08-03T13:32:52;26.00;99.90
46181;DHT22;58963;50.438;30.594;2022-08-03T13:38:12;25.80;99.90
46181;DHT22;58963;50.438;30.594;2022-08-03T13:43:31;25.40;99.90
46181;DHT22;58963;50.438;30.594;2022-08-03T13:48:51;24.40;99.90
46181;DHT22;58963;50.438;30.594;2022-08-03T13:54:10;24.00;99.90
46181;DHT22;58963;50.438;30.594;2022-08-03T13:59:29;23.50;99.90
46181;DHT22;58963;50.438;30.594;2022-08-03T14:04:48;23.40;99.90
46181;DHT22;58963;50.438;30.594;2022-08-03T14:10:08;23.50;99.90
46181;DHT22;58963;50.438;30.594;2022-08-03T14:15:27;23.40;99.90
46181;DHT22;58963;50.438;30.594;2022-08-03T14:20:47;23.40;99.90
46181;DHT22;58963;50.438;30.594;2022-08-03T14:26:07;23.50;99.90
46181;DHT22;58963;50.438;30.594;2022-08-03T14:31:26;23.50;99.90
46181;DHT22;58963;50.438;30.594;2022-08-03T14:36:46;23.20;99.90
46181;DHT22;58963;50.438;30.594;2022-08-03T14:42:05;23.00;99.90
46181;DHT22;58963;50.438;30.594;2022-08-03T14:47:24;22.80;99.90
46181;DHT22;58963;50.438;30.594;2022-08-03T14:52:44;22.80;99.90
46181;DHT22;58963;50.438;30.594;2022-08-03T14:58:03;22.70;99.90
46181;DHT22;58963;50.438;30.594;2022-08-03T15:03:24;22.60;99.90
46181;DHT22;58963;50.438;30.594;2022-08-03T15:08:44;22.60;99.90
46181;DHT22;58963;50.438;30.594;2022-08-03T15:14:04;22.70;99.90
46181;DHT22;58963;50.438;30.594;2022-08-03T15:19:26;23.00;99.90
46181;DHT22;58963;50.438;30.594;2022-08-03T15:24:46;23.20;99.90
46181;DHT22;58963;50.438;30.594;2022-08-03T15:30:06;23.50;99.90
46181;DHT22;58963;50.438;30.594;2022-08-03T15:35:25;23.80;99.90
46181;DHT22;58963;50.438;30.594;2022-08-03T15:40:47;23.80;99.90
46181;DHT22;58963;50.438;30.594;2022-08-03T15:46:06;24.10;99.90
46181;DHT22;58963;50.438;30.594;2022-08-03T15:51:26;24.10;99.90
46181;DHT22;58963;50.438;30.594;2022-08-03T15:56:45;24.00;99.90
46181;DHT22;58963;50.438;30.594;2022-08-03T16:02:04;24.00;99.90
46181;DHT22;58963;50.438;30.594;2022-08-03T16:07:24;24.00;99.90
46181;DHT22;58963;50.438;30.594;2022-08-03T16:13:01;24.00;99.90
46181;DHT22;58963;50.438;30.594;2022-08-03T16:18:20;23.90;99.90
46181;DHT22;58963;50.438;30.594;2022-08-03T16:23:40;23.70;99.90
46181;DHT22;58963;50.438;30.594;2022-08-03T16:28:59;23.60;99.90
46181;DHT22;58963;50.438;30.594;2022-08-03T16:34:19;23.20;99.90
46181;DHT22;58963;50.438;30.594;2022-08-03T16:39:39;22.80;99.90
46181;DHT22;58963;50.438;30.594;2022-08-03T16:44:58;22.80;99.90
46181;DHT22;58963;50.438;30.594;2022-08-03T16:50:17;22.60;99.90
46181;DHT22;58963;50.438;30.594;2022-08-03T16:55:38;22.40;99.90
46181;DHT22;58963;50.438;30.594;2022-08-03T17:00:57;22.40;99.90
46181;DHT22;58963;50.438;30.594;2022-08-03T17:06:16;22.30;99.90
46181;DHT22;58963;50.438;30.594;2022-08-03T17:11:40;22.10;99.90
46181;DHT22;58963;50.438;30.594;2022-08-03T17:17:02;22.10;99.90
46181;DHT22;58963;50.438;30.594;2022-08-03T17:22:23;22.00;99.90
46181;DHT22;58963;50.438;30.594;2022-08-03T17:27:44;21.90;99.90
46181;DHT22;58963;50.438;30.594;2022-08-03T17:33:07;21.90;99.90
46181;DHT22;58963;50.438;30.594;2022-08-03T17:38:26;21.90;99.90
46181;DHT22;58963;50.438;30.594;2022-08-03T17:43:46;22.00;99.90
46181;DHT22;58963;50.438;30.594;2022-08-03T17:49:08;21.90;99.90
46181;DHT22;58963;50.438;30.594;2022-08-03T17:54:38;21.90;99.90
46181;DHT22;58963;50.438;30.594;2022-08-03T18:00:06;21.90;99.90
46181;DHT22;58963;50.438;30.594;2022-08-03T18:05:50;21.80;99.90
46181;DHT22;58963;50.438;30.594;2022-08-03T18:11:12;21.80;99.90
46181;DHT22;58963;50.438;30.594;2022-08-03T18:16:41;21.80;99.90
46181;DHT22;58963;50.438;30.594;2022-08-03T18:22:02;21.70;99.90
46181;DHT22;58963;50.438;30.594;2022-08-03T18:27:22;21.60;99.90
46181;DHT22;58963;50.438;30.594;2022-08-03T18:32:43;21.50;99.90
46181;DHT22;58963;50.438;30.594;2022-08-03T18:38:02;21.50;99.90
46181;DHT22;58963;50.438;30.594;2022-08-03T18:43:21;21.50;99.90
46181;DHT22;58963;50.438;30.594;2022-08-03T18:49:00;21.50;99.90
46181;DHT22;58963;50.438;30.594;2022-08-03T18:54:25;21.30;99.90
46181;DHT22;58963;50.438;30.594;2022-08-03T19:00:06;21.20;99.90
46181;DHT22;58963;50.438;30.594;2022-08-03T19:05:28;21.10;99.90
46181;DHT22;58963;50.438;30.594;2022-08-03T19:10:53;21.00;99.90
46181;DHT22;58963;50.438;30.594;2022-08-03T19:16:41;20.90;99.90
46181;DHT22;58963;50.438;30.594;2022-08-03T19:22:05;20.90;99.90
46181;DHT22;58963;50.438;30.594;2022-08-03T19:27:31;20.90;99.90
46181;DHT22;58963;50.438;30.594;2022-08-03T19:32:51;20.80;99.90
46181;DHT22;58963;50.438;30.594;2022-08-03T19:38:15;20.70;99.90
46181;DHT22;58963;50.438;30.594;2022-08-03T19:43:36;20.70;99.90
46181;DHT22;58963;50.438;30.594;2022-08-03T19:49:11;20.60;99.90
46181;DHT22;58963;50.438;30.594;2022-08-03T19:54:36;20.50;99.90
46181;DHT22;58963;50.438;30.594;2022-08-03T19:59:56;20.40;99.90
46181;DHT22;58963;50.438;30.594;2022-08-03T20:05:16;20.50;99.90
46181;DHT22;58963;50.438;30.594;2022-08-03T20:10:35;20.50;99.90
46181;DHT22;58963;50.438;30.594;2022-08-03T20:15:55;20.40;99.90
46181;DHT22;58963;50.438;30.594;2022-08-03T20:21:15;20.30;99.90
46181;DHT22;58963;50.438;30.594;2022-08-03T20:26:36;20.30;99.90
46181;DHT22;58963;50.438;30.594;2022-08-03T20:31:56;20.40;99.90
46181;DHT22;58963;50.438;30.594;2022-08-03T20:37:17;20.50;99.90
46181;DHT22;58963;50.438;30.594;2022-08-03T20:42:36;20.40;99.90
46181;DHT22;58963;50.438;30.594;2022-08-03T20:47:56;20.50;99.90
46181;DHT22;58963;50.438;30.594;2022-08-03T20:53:17;20.40;99.90
46181;DHT22;58963;50.438;30.594;2022-08-03T20:58:37;20.50;99.90
46181;DHT22;58963;50.438;30.594;2022-08-03T21:03:57;20.40;99.90
46181;DHT22;58963;50.438;30.594;2022-08-03T21:09:19;20.50;99.90
46181;DHT22;58963;50.438;30.594;2022-08-03T21:15:01;20.60;99.90
46181;DHT22;58963;50.438;30.594;2022-08-03T21:20:26;20.70;99.90
46181;DHT22;58963;50.438;30.594;2022-08-03T21:25:46;20.90;99.90
46181;DHT22;58963;50.438;30.594;2022-08-03T21:31:08;20.80;99.90
46181;DHT22;58963;50.438;30.594;2022-08-03T21:36:32;20.70;99.90
46181;DHT22;58963;50.438;30.594;2022-08-03T21:41:52;20.80;99.90
46181;DHT22;58963;50.438;30.594;2022-08-03T21:47:11;21.00;99.90
46181;DHT22;58963;50.438;30.594;2022-08-03T21:52:32;21.00;99.90
46181;DHT22;58963;50.438;30.594;2022-08-03T21:57:56;20.90;99.90
46181;DHT22;58963;50.438;30.594;2022-08-03T22:03:18;20.80;99.90
46181;DHT22;58963;50.438;30.594;2022-08-03T22:08:41;20.60;99.90
46181;DHT22;58963;50.438;30.594;2022-08-03T22:14:01;20.60;99.90
46181;DHT22;58963;50.438;30.594;2022-08-03T22:19:20;20.50;99.90
46181;DHT22;58963;50.438;30.594;2022-08-03T22:24:42;20.60;99.90
46181;DHT22;58963;50.438;30.594;2022-08-03T22:30:11;20.60;99.90
46181;DHT22;58963;50.438;30.594;2022-08-03T22:35:34;20.40;99.90
46181;DHT22;58963;50.438;30.594;2022-08-03T22:40:55;20.40;99.90
46181;DHT22;58963;50.438;30.594;2022-08-03T22:46:15;20.70;99.90
46181;DHT22;58963;50.438;30.594;2022-08-03T22:51:39;20.70;99.90
46181;DHT22;58963;50.438;30.594;2022-08-03T22:57:02;20.60;99.90
46181;DHT22;58963;50.438;30.594;2022-08-03T23:02:23;20.70;99.90
46181;DHT22;58963;50.438;30.594;2022-08-03T23:07:43;20.60;99.90
46181;DHT22;58963;50.438;30.594;2022-08-03T23:13:04;20.60;99.90
46181;DHT22;58963;50.438;30.594;2022-08-03T23:18:28;20.50;99.90
46181;DHT22;58963;50.438;30.594;2022-08-03T23:23:48;20.70;99.90
46181;DHT22;58963;50.438;30.594;2022-08-03T23:29:08;20.60;99.90
46181;DHT22;58963;50.438;30.594;2022-08-03T23:34:30;20.50;99.90
46181;DHT22;58963;50.438;30.594;2022-08-03T23:40:11;20.40;99.90
46181;DHT22;58963;50.438;30.594;2022-08-03T23:45:31;20.30;99.90
46181;DHT22;58963;50.438;30.594;2022-08-03T23:51:06;20.40;99.90
